Airfield :
LOGIN :

Register | Disclaimer

   EN    FR    IT 

 










Legend :    VFR   Marginal VFR   IFR   Intensive IFR   Very Intensive IFR
Visi :
Ceiling :
>= 8 km
>= 3000ft
5 to 8 km
1000 to 3000 ft
1500m to 5 km
500 to 1000 ft
800 to 1500m
200 to 500 ft
< 800m
< 200 ft
Symbols :   Thunderstorms  Fog  Heavy snow  Heavy precipitations  Wind > 20 kt
SIGMETs :     Misc.  Thunderstorms  Icing  Turbulence  Mountain Waves  Volcanic Ashes







- Airport Elevation : 24 ft
- IATA code : FAO


LPFR - Faro

CURRENT METAR :
  • 300100Z 30005KT 270V330 CAVOK 18/15 Q1016

EXPIRED METARs :
  • 300030Z 33007KT CAVOK 18/14 Q1016
  • 300000Z 32008KT CAVOK 18/14 Q1016
  • 292330Z 33012KT CAVOK 19/14 Q1016
  • 292300Z 33011KT CAVOK 19/14 Q1016
  • 292230Z 33009KT CAVOK 20/15 Q1017

TAF TAF LPFR
Valid from the 30 at 00:00 until the 31 at 00:00 UTC


292300Z 3000/3024 31008KT CAVOK
BECMG 3010/3012 21010KT
BECMG 3013/3015 24012KT
BECMG 3018/3020 32010KT
No reported NOTAMs for that airfield.



MET'MAP, your aeronautical weather chart ! - Copyright ORBIFLY December 2007 - Disclaimer

ORBIFLY MET'MAP TEAM :

Programming & Development : Alexandra Zaïnal
Concept & Development : Baudouin d'Aumeries
Co-Development & Prog : Marc-Olivier Méhu
Technical & hardware support : Manuel Goepfert

Contact : metmap@orbifly.com




SOURCES & CREDITS :

   NOAA